Flight Track Log - Related Links

Times and Time Zones

All times are in EDT time to prevent confusion due to time zone crossing. See the SKW5619 flight status page for this flight to view local times or setup timezone preferences in your user account.

Time Position Orientation Groundspeed Altitude Reporting Facility
EDT Latitude Longitude Course Direction KTS MPH feet Rate Location/Type
Mon 09:44:00 PM 40.2008 -104.9943 324° Northwest  Level Estimated
Mon 09:45:00 PM 40.2855 -105.0751 324° Northwest  Level Estimated
Mon 09:46:00 PM 40.3701 -105.1560 324° Northwest  Level Estimated
Mon 09:47:00 PM 40.4546 -105.2372 324° Northwest  Level Estimated
Mon 09:48:00 PM 40.5391 -105.3186 324° Northwest  Level Estimated
Mon 09:49:00 PM 40.6235 -105.4002 324° Northwest  Level Estimated
Mon 09:50:00 PM 40.7079 -105.4820 324° Northwest  Level Estimated
Mon 09:51:00 PM 40.7922 -105.5640 324° Northwest  Level Estimated
Mon 09:52:00 PM 40.8765 -105.6462 324° Northwest  Level Estimated
Mon 09:53:00 PM 40.9607 -105.7287 324° Northwest  Level Estimated
Mon 09:54:00 PM 41.0448 -105.8113 323° Northwest  Level Estimated
Mon 09:55:00 PM 41.1289 -105.8942 323° Northwest  Level Estimated
Mon 09:56:00 PM 41.2129 -105.9772 323° Northwest  Level Estimated
Mon 09:57:00 PM 41.2969 -106.0605 323° Northwest  Level Estimated
Mon 09:58:00 PM 41.3808 -106.1440 323° Northwest  Level Estimated
Mon 09:59:00 PM 41.4646 -106.2277 323° Northwest  Level Estimated
Mon 10:00:00 PM 41.5484 -106.3116 323° Northwest  Level Estimated
Mon 10:01:00 PM 41.6321 -106.3958 323° Northwest  Level Estimated
Mon 10:02:00 PM 41.7157 -106.4801 323° Northwest  Level Estimated
Mon 10:03:00 PM 41.7993 -106.5647 323° Northwest  Level Estimated
Mon 10:04:00 PM 41.8829 -106.6495 323° Northwest  Level Estimated
Mon 10:05:00 PM 41.9663 -106.7345 323° Northwest  Level Estimated
Mon 10:06:00 PM 42.0497 -106.8198 323° Northwest  Level Estimated
Mon 10:07:00 PM 42.1331 -106.9053 323° Northwest  Level Estimated
Mon 10:08:00 PM 42.2164 -106.9909 323° Northwest  Level Estimated
Mon 10:09:00 PM 42.2996 -107.0769 323° Northwest  Level Estimated
Mon 10:10:00 PM 42.3827 -107.1630 323° Northwest  Level Estimated
Mon 10:11:00 PM 42.4658 -107.2494 323° Northwest  Level Estimated
Mon 10:12:00 PM 42.5488 -107.3360 322° Northwest  Level Estimated
Mon 10:13:00 PM 42.6318 -107.4228 322° Northwest  Level Estimated
Mon 10:14:00 PM 42.7146 -107.5099 322° Northwest  Level Estimated
Mon 10:15:00 PM 42.7975 -107.5972 322° Northwest  Level Estimated
Mon 10:16:00 PM 42.8802 -107.6848 322° Northwest  Level Estimated
Mon 10:17:00 PM 42.9629 -107.7725 322° Northwest  Level Estimated
Mon 10:18:00 PM 43.0455 -107.8605 322° Northwest  Level Estimated
Mon 10:19:00 PM 43.1281 -107.9488 322° Northwest  Level Estimated
Mon 10:20:00 PM 43.2106 -108.0372 322° Northwest  Level Estimated
Mon 10:21:00 PM 43.2930 -108.1260 322° Northwest  Level Estimated
Mon 10:22:00 PM 43.3754 -108.2149 322° Northwest  Level Estimated
Mon 10:23:00 PM 43.4576 -108.3041 322° Northwest  Level Estimated
Mon 10:24:00 PM 43.5398 -108.3936 322° Northwest  Level Estimated
Mon 10:25:00 PM 43.6220 -108.4833 322° Northwest  Level Estimated
Mon 10:26:00 PM 43.7040 -108.5732 322° Northwest  Level Estimated
Mon 10:27:00 PM 43.7860 -108.6634 322° Northwest  Level Estimated
Mon 10:28:00 PM 43.8680 -108.7538 322° Northwest  Level Estimated
Mon 10:29:00 PM 43.9498 -108.8445 321° Northwest  Level Estimated
Mon 10:30:00 PM 44.0316 -108.9354 321° Northwest  Level Estimated
Mon 10:31:00 PM 44.1133 -109.0266 321° Northwest  Level Estimated
Mon 10:32:00 PM 44.1950 -109.1180 321° Northwest  Level Estimated
Mon 10:33:00 PM 44.2765 -109.2097 321° Northwest  Level Estimated
Mon 10:34:00 PM 44.3580 -109.3017 321° Northwest  Level Estimated
Mon 10:35:00 PM 44.4394 -109.3939 321° Northwest  Level Estimated
Mon 10:36:00 PM 44.5208 -109.4863 321° Northwest  Level Estimated
Mon 10:37:00 PM 44.6021 -109.5790 321° Northwest  Level Estimated
Mon 10:38:00 PM 44.6833 -109.6720 321° Northwest  Level Estimated
Mon 10:39:00 PM 44.7644 -109.7652 321° Northwest  Level Estimated
Mon 10:40:00 PM 44.8454 -109.8587 321° Northwest  Level Estimated
Mon 10:41:00 PM 44.9264 -109.9525 321° Northwest  Level Estimated
Mon 10:42:00 PM 45.0073 -110.0465 321° Northwest  Level Estimated
Mon 10:43:00 PM 45.0881 -110.1408 321° Northwest  Level Estimated
Mon 10:44:00 PM 45.1688 -110.2354 320° Northwest  Level Estimated
Mon 10:45:00 PM 45.2495 -110.3302 320° Northwest  Level Estimated
Mon 10:46:00 PM 45.3301 -110.4253 320° Northwest  Level Estimated
Mon 10:47:00 PM 45.4105 -110.5207 320° Northwest  Level Estimated
Mon 10:48:00 PM 45.4910 -110.6163 320° Northwest  Level Estimated
Mon 10:49:00 PM 45.5713 -110.7122 320° Northwest  Level Estimated
Mon 10:50:00 PM 45.6516 -110.8084 320° Northwest  Level Estimated
Mon 10:51:00 PM 45.7318 -110.9048 320° Northwest  Level Estimated
Mon 10:52:00 PM 45.8118 -111.0016 320° Northwest  Level Estimated
Mon 10:53:00 PM 45.8918 -111.0986 320° Northwest  Level Estimated
Mon 10:54:00 PM 45.9718 -111.1959 320° Northwest  Level Estimated
Mon 10:55:00 PM 46.0516 -111.2935 320° Northwest  Level Estimated
Mon 10:56:00 PM 46.1314 -111.3913 320° Northwest  Level Estimated
Mon 10:57:00 PM 46.2111 -111.4895 320° Northwest  Level Estimated
Mon 10:58:00 PM 46.2907 -111.5879 320° Northwest  Level Estimated
Mon 10:59:00 PM 46.3702 -111.6866 319° Northwest  Level Estimated
Mon 11:00:00 PM 46.4496 -111.7856 319° Northwest  Level Estimated
Mon 11:01:00 PM 46.5289 -111.8849 319° Northwest  Level Estimated
Mon 11:02:00 PM 46.6068 -111.9827 319° Northwest  Level Estimated
Mon 11:03:00 PM 46.6068 -111.9827 180° South  Level Estimated
Mon 11:04:00 PM 46.6068 -111.9827 180° South  Level Estimated
Mon 11:05:00 PM 46.6068 -111.9827 180° South  Level Estimated
Mon 11:06:00 PM 46.6068 -111.9827 180° South  Level Estimated
Mon 11:07:00 PM 46.6068 -111.9827 180° South  Level Estimated
Mon 11:08:00 PM 46.6068 -111.9827 180° South  Level Estimated
Mon 11:09:00 PM 46.6068 -111.9827 180° South  Level Estimated
Mon 11:10:00 PM 46.6068 -111.9827 180° South  Level Estimated
Mon 11:11:00 PM 46.6068 -111.9827 180° South  Level Estimated

Login

Don't have an account? Register now (free) for customized features, flight alerts, and more!